Terminal Aerodrome Forecast
Issued by NWS

Home | Current Version | Previous Version | Text Only | Print | Product List | Glossary On
Versions: 1 2 3 4 5 6 7 8 9 10 11 12 13 14 15 16 17 18 19
000
FTAK31 PAJN 301100
TAFAKT
TAF
PAKT 301135Z 3012/3112 14005KT P6SM BCFG VCSH SCT005 SCT025 OVC050
     FM301500 14005KT P6SM -SHRA SCT020 OVC040
     FM301800 14008KT P6SM -SHRA OVC050
     FM302100 24006KT P6SM -SHRA SCT025 OVC050
     FM310000 24008KT P6SM VCSH SCT020 BKN040 OVC060
     FM310600 14006KT P6SM VCSH SCT025 OVC050
     FM310900 VRB03KT P6SM -SHRA SCT015 OVC030
      AMD LTD TO CLD VIS AND WIND 3012/3015=

USA.gov is the U.S. government's official web portal to all federal, state and local government web resources and services.